DXXXFACT

Guest
Details From DXXX - Gnassingbe Eyadema Intl
To FACT - Cape Town International
Flight Number -
Tags Generated
Created
Modified
Stats Distance 2,603 nm / 4,821 km
Max Altitude 0 ft / 0 m
Waypoints 3
Social Downloads 1
Likes 0
Share VATSIM

Download

Looking for another format? Having issues loading an existing format? Contact us
Advertisement - Login to hide

Notes

Generated

Route

DXXX RIV06 FACT

ID Type Via Altitude Latitude Longitude Leg Dist Tot Dist Heading (true) Name
O DXXX APT - 0 ft / 0 m 6.15513˚ 1.24569˚ - 0 nm - -
RIV06 FIX - 0 ft / 0 m -33.75401˚ 18.47141˚ 2589 nm 2589 nm 159° / 154° -
O FACT APT - 0 ft / 0 m -33.96149˚ 18.59772˚ 13 nm 2603 nm 153° / 153° -

Altitude Profile

Advertisement - Login to hide

Weather


0- 5 10 15 20 25 30 35+ Temperature / ° C

Clouds and Precipitation
Forecast for 2018-05-27 12:00 UTC. Updated 5 hours ago

Ground ~20,000 ft ~40,000 ft Winds

DXXX

Details ICAO DXXX (LFW)
Name GNASSINGBE EYADEMA INTL
Region Togolese Republic
Timezone Africa/Lome (UTC+0.0)
Stats Elevation 72 ft / 22 m (AMSL)
Location 6.165736° 1.254142°
Runways 1
Magnetic Variation 2.827° W

METAR

DXXX 271500Z 21012KT 180V240 9999 FEW014 FEW020CB 29/25 Q1012 NOSIG

Decode

TAF

TAF DXXX 271100Z 2712/2818 20010KT 9999 FEW014 TEMPO 2712/2719 TS BKN010 FEW020CB BECMG 2723/2801 26005KT PROB30 TEMPO 2802/2809 4000 TSRA

Decode

Departure Runways

ID Width Length Bearing (true) Bearing (mag) Surface Threshold Offset Overrun Length
04 148 ft / 45 m 9,878 ft / 3,011 m 38.40° 41.23° Asphalt 0 ft / 0 m 197 ft / 60 m
22 148 ft / 45 m 9,878 ft / 3,011 m 218.40° 221.23° Asphalt 0 ft / 0 m 197 ft / 60 m

FACT

Details ICAO FACT (CPT)
Name Cape Town International
Region South Africa
Timezone Africa/Johannesburg (UTC+2.0)
Stats Elevation 151 ft / 46 m (AMSL)
Location -33.970501° 18.604405°
Runways 2
Magnetic Variation 25.395° W

METAR

FACT 271500Z 18005KT 160V220 CAVOK 18/12 Q1015 NOSIG

Decode

TAF

Not found

Destination Runways

ID Width Length Bearing (true) Bearing (mag) Surface Threshold Offset Overrun Length
01 200 ft / 61 m 10,527 ft / 3,209 m 345.27° 10.66° Asphalt 0 ft / 0 m 195 ft / 59 m
16 151 ft / 46 m 5,586 ft / 1,703 m 135.35° 160.74° Asphalt 300 ft / 91 m 0 ft / 0 m
19 200 ft / 61 m 10,527 ft / 3,209 m 165.27° 190.66° Asphalt 0 ft / 0 m 195 ft / 59 m
34 151 ft / 46 m 5,586 ft / 1,703 m 315.35° 340.74° Asphalt 300 ft / 91 m 0 ft / 0 m

Approach Navaids

Runway Type Ident Frequency Range Bearing (true) Bearing (mag) Slope Elevation
01 Localiser CTI 110.30 MHz 18 nm / 33 km 345.21° 10.61° - 151 ft / 46 m (AMSL)
01 Glidescope CTI 110.30 MHz 10 nm / 19 km 345.27° 10.66° 3.00° 151 ft / 46 m (AMSL)
01 DME CTI 110.30 MHz 18 nm / 33 km - - - 151 ft / 46 m (AMSL)
19 Localiser KSI 109.10 MHz 18 nm / 33 km 165.33° 190.72° - 151 ft / 46 m (AMSL)
19 Glidescope KSI 109.10 MHz 10 nm / 19 km 165.27° 190.66° 3.20° 151 ft / 46 m (AMSL)
19 DME KSI 109.10 MHz 18 nm / 33 km - - - 151 ft / 46 m (AMSL)

Popular Alternatives